DAL1700 KIAH-KBNA
Flight info
| Callsign | DAL1700 |
|---|---|
| Flight time | 1h 22m |
| Altitude | 37000 |
| Route | LURIC8 HAWES SUTTN J29 CARIN MEMFS CHSNE3 |
| Aircraft | A21N/M-SDE2E3FGHIRWXY/LB1 |
Departure
| Time | 2026-05-06 22:34 |
|---|---|
| Airport | George Bush Intercontinental Airport (KIAH) |
Arrival
| Time | 2026-05-06 23:56 |
|---|---|
| Airport | Nashville International Airport (KBNA) |
| Time | Latitude | Longitude | Altitude | Speed | Heading |
|---|---|---|---|---|---|
| 2026-05-06 22:04 | 29.98882 | -95.35001 | 100 ft | 0 kts | 90° |
| 2026-05-06 22:18 | 29.98882 | -95.35010 | 100 ft | 2 kts | 96° |
| 2026-05-06 22:19 | 29.98884 | -95.35027 | 100 ft | 2 kts | 95° |
| 2026-05-06 22:19 | 29.98885 | -95.35044 | 100 ft | 2 kts | 95° |
| 2026-05-06 22:19 | 29.98887 | -95.35062 | 100 ft | 2 kts | 95° |
| 2026-05-06 22:19 | 29.98888 | -95.35075 | 100 ft | 0 kts | 95° |
| 2026-05-06 22:20 | 29.98888 | -95.35081 | 100 ft | 0 kts | 57° |
| 2026-05-06 22:20 | 29.98885 | -95.35084 | 100 ft | 0 kts | 9° |
| 2026-05-06 22:20 | 29.98879 | -95.35084 | 100 ft | 1 kts | 5° |
| 2026-05-06 22:20 | 29.98878 | -95.35085 | 100 ft | 0 kts | 5° |
| 2026-05-06 22:24 | 29.98879 | -95.35084 | 100 ft | 0 kts | 5° |
| 2026-05-06 22:26 | 29.98909 | -95.35083 | 100 ft | 14 kts | 355° |
| 2026-05-06 22:27 | 29.98931 | -95.35113 | 100 ft | 9 kts | 285° |
| 2026-05-06 22:27 | 29.98933 | -95.35210 | 100 ft | 4 kts | 263° |
| 2026-05-06 22:27 | 29.98933 | -95.35211 | 100 ft | 0 kts | 263° |
| 2026-05-06 22:27 | 29.98930 | -95.35229 | 100 ft | 3 kts | 260° |
| 2026-05-06 22:28 | 29.98924 | -95.35272 | 100 ft | 7 kts | 262° |
| 2026-05-06 22:28 | 29.98919 | -95.35340 | 100 ft | 10 kts | 268° |
| 2026-05-06 22:28 | 29.98921 | -95.35432 | 100 ft | 12 kts | 272° |
| 2026-05-06 22:28 | 29.98896 | -95.35537 | 100 ft | 14 kts | 245° |
| 2026-05-06 22:29 | 29.98907 | -95.35568 | 100 ft | 3 kts | 15° |
| 2026-05-06 22:29 | 29.98944 | -95.35564 | 100 ft | 6 kts | 354° |
| 2026-05-06 22:29 | 29.99001 | -95.35583 | 100 ft | 10 kts | 339° |
| 2026-05-06 22:29 | 29.99072 | -95.35625 | 100 ft | 12 kts | 331° |
| 2026-05-06 22:30 | 29.99099 | -95.35712 | 100 ft | 13 kts | 279° |
| 2026-05-06 22:30 | 29.99098 | -95.35825 | 100 ft | 15 kts | 268° |
| 2026-05-06 22:30 | 29.99082 | -95.35951 | 101 ft | 16 kts | 251° |
| 2026-05-06 22:30 | 29.98997 | -95.36030 | 100 ft | 17 kts | 170° |
| 2026-05-06 22:31 | 29.98876 | -95.35983 | 100 ft | 18 kts | 182° |
| 2026-05-06 22:31 | 29.98834 | -95.36025 | 100 ft | 0 kts | 239° |
| 2026-05-06 22:32 | 29.98833 | -95.36028 | 100 ft | 0 kts | 238° |
| 2026-05-06 22:32 | 29.98828 | -95.36036 | 100 ft | 1 kts | 238° |
| 2026-05-06 22:32 | 29.98809 | -95.36066 | 100 ft | 10 kts | 232° |
| 2026-05-06 22:33 | 29.98739 | -95.36098 | 100 ft | 11 kts | 173° |
| 2026-05-06 22:33 | 29.98518 | -95.35978 | 99 ft | 77 kts | 152° |
| 2026-05-06 22:33 | 29.97801 | -95.35535 | 99 ft | 154 kts | 152° |
| 2026-05-06 22:33 | 29.96787 | -95.34889 | 614 ft | 174 kts | 151° |
| 2026-05-06 22:34 | 29.95788 | -95.34197 | 1637 ft | 167 kts | 139° |
| 2026-05-06 22:34 | 29.95078 | -95.33210 | 2457 ft | 163 kts | 140° |
| 2026-05-06 22:34 | 29.94010 | -95.32832 | 2878 ft | 171 kts | 190° |
| 2026-05-06 22:34 | 29.92962 | -95.33583 | 3161 ft | 194 kts | 231° |
| 2026-05-06 22:35 | 29.92523 | -95.35133 | 3383 ft | 223 kts | 268° |
| 2026-05-06 22:35 | 29.92976 | -95.36955 | 3680 ft | 251 kts | 298° |
| 2026-05-06 22:35 | 29.94191 | -95.38528 | 4035 ft | 279 kts | 319° |
| 2026-05-06 22:35 | 29.95686 | -95.39969 | 4783 ft | 285 kts | 315° |
| 2026-05-06 22:36 | 29.97306 | -95.41290 | 5569 ft | 291 kts | 335° |
| 2026-05-06 22:36 | 29.99296 | -95.41730 | 6297 ft | 297 kts | 1° |
| 2026-05-06 22:36 | 30.01326 | -95.41235 | 6990 ft | 301 kts | 18° |
| 2026-05-06 22:36 | 30.03306 | -95.40398 | 7637 ft | 305 kts | 21° |
| 2026-05-06 22:37 | 30.05286 | -95.39481 | 8294 ft | 309 kts | 21° |
| 2026-05-06 22:37 | 30.07278 | -95.38537 | 8951 ft | 312 kts | 21° |
| 2026-05-06 22:37 | 30.09286 | -95.37582 | 9578 ft | 314 kts | 21° |
| 2026-05-06 22:37 | 30.11299 | -95.36578 | 10170 ft | 318 kts | 27° |
| 2026-05-06 22:38 | 30.13125 | -95.35055 | 10536 ft | 330 kts | 42° |
| 2026-05-06 22:38 | 30.14813 | -95.33150 | 10809 ft | 345 kts | 45° |
| 2026-05-06 22:38 | 30.16470 | -95.31209 | 11063 ft | 358 kts | 45° |
| 2026-05-06 22:38 | 30.17797 | -95.29681 | 11245 ft | 369 kts | 44° |
| 2026-05-06 22:39 | 30.18897 | -95.28443 | 11399 ft | 377 kts | 43° |
| 2026-05-06 22:39 | 30.20844 | -95.26302 | 11661 ft | 391 kts | 43° |
| 2026-05-06 22:39 | 30.22844 | -95.24138 | 11988 ft | 401 kts | 42° |
| 2026-05-06 22:39 | 30.24928 | -95.21902 | 12477 ft | 406 kts | 41° |
| 2026-05-06 22:40 | 30.26995 | -95.19689 | 12974 ft | 409 kts | 41° |
| 2026-05-06 22:40 | 30.29086 | -95.17460 | 13429 ft | 412 kts | 41° |
| 2026-05-06 22:40 | 30.31224 | -95.15176 | 13910 ft | 417 kts | 41° |
| 2026-05-06 22:40 | 30.33366 | -95.12883 | 14392 ft | 421 kts | 41° |
| 2026-05-06 22:41 | 30.37645 | -95.08285 | 15583 ft | 422 kts | 41° |
| 2026-05-06 22:41 | 30.39335 | -95.06466 | 15990 ft | 425 kts | 41° |
| 2026-05-06 22:41 | 30.40263 | -95.05466 | 16201 ft | 427 kts | 41° |
| 2026-05-06 22:42 | 30.41520 | -95.04114 | 16483 ft | 430 kts | 41° |
| 2026-05-06 22:42 | 30.43714 | -95.01751 | 16963 ft | 434 kts | 41° |
| 2026-05-06 22:42 | 30.45938 | -94.99355 | 17450 ft | 438 kts | 41° |
| 2026-05-06 22:42 | 30.48184 | -94.96934 | 17939 ft | 441 kts | 41° |
| 2026-05-06 22:43 | 30.50438 | -94.94506 | 18412 ft | 446 kts | 41° |
| 2026-05-06 22:43 | 30.52728 | -94.92043 | 18876 ft | 449 kts | 40° |
| 2026-05-06 22:43 | 30.55089 | -94.89669 | 19304 ft | 452 kts | 36° |
| 2026-05-06 22:43 | 30.57589 | -94.87456 | 19748 ft | 454 kts | 32° |
| 2026-05-06 22:44 | 30.60221 | -94.85377 | 20205 ft | 456 kts | 30° |
| 2026-05-06 22:44 | 30.62852 | -94.83366 | 20640 ft | 460 kts | 29° |
| 2026-05-06 22:44 | 30.65551 | -94.81312 | 21085 ft | 464 kts | 29° |
| 2026-05-06 22:44 | 30.68272 | -94.79234 | 21528 ft | 468 kts | 29° |
| 2026-05-06 22:45 | 30.70984 | -94.77155 | 21960 ft | 472 kts | 29° |
| 2026-05-06 22:45 | 30.73723 | -94.75048 | 22386 ft | 476 kts | 29° |
| 2026-05-06 22:45 | 30.76508 | -94.72903 | 22810 ft | 479 kts | 29° |
| 2026-05-06 22:45 | 30.79296 | -94.70752 | 23223 ft | 483 kts | 29° |
| 2026-05-06 22:46 | 30.82106 | -94.68582 | 23626 ft | 486 kts | 29° |
| 2026-05-06 22:46 | 30.84929 | -94.66401 | 24023 ft | 490 kts | 29° |
| 2026-05-06 22:46 | 30.87800 | -94.64181 | 24421 ft | 493 kts | 29° |
| 2026-05-06 22:46 | 30.90632 | -94.61988 | 24808 ft | 496 kts | 29° |
| 2026-05-06 22:47 | 30.93535 | -94.59738 | 25198 ft | 499 kts | 28° |
| 2026-05-06 22:47 | 30.96406 | -94.57511 | 25572 ft | 502 kts | 28° |
| 2026-05-06 22:47 | 30.99320 | -94.55250 | 25941 ft | 505 kts | 28° |
| 2026-05-06 22:47 | 31.02249 | -94.52979 | 26305 ft | 507 kts | 28° |
| 2026-05-06 22:48 | 31.05202 | -94.50691 | 26663 ft | 510 kts | 28° |
| 2026-05-06 22:48 | 31.08173 | -94.48388 | 27016 ft | 513 kts | 28° |
| 2026-05-06 22:48 | 31.11164 | -94.46066 | 27355 ft | 515 kts | 28° |
| 2026-05-06 22:48 | 31.14144 | -94.43748 | 27677 ft | 517 kts | 28° |
| 2026-05-06 22:49 | 31.17169 | -94.41395 | 27987 ft | 520 kts | 28° |
| 2026-05-06 22:49 | 31.20181 | -94.39047 | 28302 ft | 523 kts | 28° |
| 2026-05-06 22:49 | 31.23199 | -94.36691 | 28628 ft | 525 kts | 27° |
| 2026-05-06 22:49 | 31.26242 | -94.34314 | 28968 ft | 527 kts | 28° |
| 2026-05-06 22:50 | 31.29279 | -94.31941 | 29370 ft | 526 kts | 28° |
| 2026-05-06 22:50 | 31.32325 | -94.29562 | 29800 ft | 525 kts | 28° |
| 2026-05-06 22:50 | 31.35354 | -94.27194 | 30223 ft | 523 kts | 27° |
| 2026-05-06 22:50 | 31.38382 | -94.24827 | 30633 ft | 523 kts | 27° |
| 2026-05-06 22:51 | 31.41392 | -94.22471 | 31034 ft | 522 kts | 27° |
| 2026-05-06 22:51 | 31.44421 | -94.20098 | 31447 ft | 522 kts | 27° |
| 2026-05-06 22:51 | 31.47466 | -94.17709 | 31873 ft | 521 kts | 27° |
| 2026-05-06 22:51 | 31.48428 | -94.16953 | 32010 ft | 520 kts | 27° |
| 2026-05-06 22:52 | 31.49169 | -94.16371 | 32117 ft | 520 kts | 27° |
| 2026-05-06 22:53 | 31.52152 | -94.14028 | 32542 ft | 519 kts | 27° |
| 2026-05-06 22:53 | 31.55166 | -94.11658 | 32961 ft | 517 kts | 27° |
| 2026-05-06 22:53 | 31.58141 | -94.09316 | 33367 ft | 516 kts | 27° |
| 2026-05-06 22:53 | 31.61092 | -94.06992 | 33762 ft | 515 kts | 27° |
| 2026-05-06 22:54 | 31.64054 | -94.04657 | 34155 ft | 513 kts | 27° |
| 2026-05-06 22:54 | 31.67046 | -94.02296 | 34543 ft | 512 kts | 27° |
| 2026-05-06 22:54 | 31.69976 | -93.99982 | 34888 ft | 511 kts | 27° |
| 2026-05-06 22:54 | 31.72928 | -93.97649 | 35203 ft | 510 kts | 27° |
| 2026-05-06 22:55 | 31.75881 | -93.95314 | 35467 ft | 511 kts | 27° |
| 2026-05-06 22:55 | 31.78820 | -93.92913 | 35694 ft | 515 kts | 30° |
| 2026-05-06 22:55 | 31.81690 | -93.90366 | 35887 ft | 519 kts | 31° |
| 2026-05-06 22:55 | 31.84559 | -93.87752 | 36090 ft | 520 kts | 31° |
| 2026-05-06 22:56 | 31.87400 | -93.85140 | 36292 ft | 522 kts | 31° |
| 2026-05-06 22:56 | 31.90248 | -93.82519 | 36492 ft | 523 kts | 31° |
| 2026-05-06 22:56 | 31.93119 | -93.79881 | 36664 ft | 524 kts | 31° |
| 2026-05-06 22:56 | 31.95993 | -93.77245 | 36828 ft | 525 kts | 31° |
| 2026-05-06 22:57 | 31.98891 | -93.74587 | 36954 ft | 527 kts | 31° |
| 2026-05-06 22:57 | 32.04658 | -93.69296 | 36991 ft | 528 kts | 31° |
| 2026-05-06 22:58 | 32.10469 | -93.63956 | 36999 ft | 528 kts | 31° |
| 2026-05-06 22:58 | 32.16242 | -93.58643 | 36977 ft | 528 kts | 31° |
| 2026-05-06 22:59 | 32.22027 | -93.53311 | 36957 ft | 528 kts | 31° |
| 2026-05-06 22:59 | 32.27810 | -93.47972 | 36954 ft | 528 kts | 31° |
| 2026-05-06 23:00 | 32.33581 | -93.42634 | 36953 ft | 528 kts | 31° |
| 2026-05-06 23:00 | 32.39367 | -93.37273 | 36952 ft | 529 kts | 30° |
| 2026-05-06 23:01 | 32.45158 | -93.31899 | 36951 ft | 529 kts | 31° |
| 2026-05-06 23:01 | 32.50979 | -93.26492 | 36954 ft | 530 kts | 31° |
| 2026-05-06 23:02 | 32.56741 | -93.21127 | 36964 ft | 530 kts | 31° |
| 2026-05-06 23:02 | 32.62548 | -93.15710 | 36975 ft | 530 kts | 31° |
| 2026-05-06 23:03 | 32.68365 | -93.10274 | 36981 ft | 531 kts | 31° |
| 2026-05-06 23:03 | 32.74133 | -93.04875 | 36983 ft | 531 kts | 31° |
| 2026-05-06 23:04 | 32.79965 | -92.99406 | 36983 ft | 532 kts | 31° |
| 2026-05-06 23:04 | 32.85774 | -92.93948 | 36984 ft | 532 kts | 30° |
| 2026-05-06 23:05 | 32.91559 | -92.88500 | 36984 ft | 532 kts | 30° |
| 2026-05-06 23:05 | 32.97390 | -92.83071 | 36984 ft | 530 kts | 28° |
| 2026-05-06 23:06 | 33.03341 | -92.77872 | 36986 ft | 529 kts | 27° |
| 2026-05-06 23:06 | 33.09313 | -92.72699 | 36988 ft | 530 kts | 27° |
| 2026-05-06 23:07 | 33.15247 | -92.67531 | 36990 ft | 531 kts | 27° |
| 2026-05-06 23:07 | 33.21214 | -92.62314 | 36993 ft | 531 kts | 27° |
| 2026-05-06 23:08 | 33.27168 | -92.57101 | 36994 ft | 531 kts | 27° |
| 2026-05-06 23:08 | 33.33144 | -92.51855 | 36996 ft | 532 kts | 27° |
| 2026-05-06 23:09 | 33.39079 | -92.46616 | 36997 ft | 532 kts | 27° |
| 2026-05-06 23:09 | 33.45065 | -92.41341 | 36999 ft | 534 kts | 28° |
| 2026-05-06 23:10 | 33.50742 | -92.35531 | 37004 ft | 544 kts | 37° |
| 2026-05-06 23:10 | 33.55827 | -92.28703 | 37005 ft | 554 kts | 46° |
| 2026-05-06 23:11 | 33.60551 | -92.21374 | 37006 ft | 555 kts | 47° |
| 2026-05-06 23:11 | 33.65244 | -92.14067 | 37009 ft | 556 kts | 47° |
| 2026-05-06 23:12 | 33.70008 | -92.06699 | 37011 ft | 557 kts | 46° |
| 2026-05-06 23:12 | 33.74766 | -91.99376 | 37014 ft | 557 kts | 46° |
| 2026-05-06 23:13 | 33.79515 | -91.92043 | 37016 ft | 558 kts | 46° |
| 2026-05-06 23:13 | 33.84249 | -91.84730 | 37016 ft | 558 kts | 46° |
| 2026-05-06 23:14 | 33.89033 | -91.77331 | 37019 ft | 558 kts | 46° |
| 2026-05-06 23:14 | 33.93762 | -91.69989 | 37017 ft | 558 kts | 46° |
| 2026-05-06 23:15 | 33.98494 | -91.62621 | 37020 ft | 558 kts | 46° |
| 2026-05-06 23:15 | 34.03225 | -91.55226 | 37028 ft | 558 kts | 46° |
| 2026-05-06 23:16 | 34.07952 | -91.47834 | 37033 ft | 558 kts | 46° |
| 2026-05-06 23:16 | 34.12703 | -91.40410 | 37032 ft | 559 kts | 46° |
| 2026-05-06 23:17 | 34.17427 | -91.32993 | 37027 ft | 559 kts | 47° |
| 2026-05-06 23:17 | 34.22189 | -91.25500 | 37026 ft | 560 kts | 47° |
| 2026-05-06 23:18 | 34.26916 | -91.18026 | 37028 ft | 560 kts | 46° |
| 2026-05-06 23:18 | 34.31623 | -91.10603 | 37033 ft | 559 kts | 46° |
| 2026-05-06 23:19 | 34.36369 | -91.03092 | 37030 ft | 560 kts | 46° |
| 2026-05-06 23:19 | 34.41085 | -90.95606 | 37031 ft | 560 kts | 46° |
| 2026-05-06 23:20 | 34.45792 | -90.88120 | 37030 ft | 560 kts | 46° |
| 2026-05-06 23:20 | 34.50509 | -90.80619 | 37028 ft | 560 kts | 46° |
| 2026-05-06 23:21 | 34.55227 | -90.73108 | 37027 ft | 559 kts | 46° |
| 2026-05-06 23:21 | 34.59893 | -90.65634 | 37019 ft | 558 kts | 46° |
| 2026-05-06 23:22 | 34.64563 | -90.58129 | 37015 ft | 558 kts | 46° |
| 2026-05-06 23:22 | 34.69243 | -90.50616 | 37016 ft | 558 kts | 46° |
| 2026-05-06 23:23 | 34.73937 | -90.43066 | 37016 ft | 561 kts | 46° |
| 2026-05-06 23:23 | 34.78651 | -90.35481 | 37015 ft | 570 kts | 46° |
| 2026-05-06 23:24 | 34.83448 | -90.27705 | 37014 ft | 575 kts | 47° |
| 2026-05-06 23:24 | 34.88275 | -90.19892 | 37017 ft | 577 kts | 47° |
| 2026-05-06 23:25 | 34.93079 | -90.12088 | 37020 ft | 577 kts | 47° |
| 2026-05-06 23:25 | 34.97879 | -90.04248 | 37021 ft | 579 kts | 48° |
| 2026-05-06 23:26 | 35.02177 | -89.95904 | 37024 ft | 586 kts | 57° |
| 2026-05-06 23:26 | 35.05580 | -89.86791 | 37029 ft | 590 kts | 65° |
| 2026-05-06 23:27 | 35.08597 | -89.77518 | 37030 ft | 590 kts | 65° |
| 2026-05-06 23:27 | 35.11640 | -89.68219 | 37024 ft | 590 kts | 65° |
| 2026-05-06 23:28 | 35.14691 | -89.59013 | 37016 ft | 576 kts | 64° |
| 2026-05-06 23:28 | 35.17683 | -89.50008 | 37012 ft | 574 kts | 64° |
| 2026-05-06 23:29 | 35.20670 | -89.40997 | 37007 ft | 574 kts | 64° |
| 2026-05-06 23:29 | 35.22173 | -89.36449 | 36869 ft | 576 kts | 64° |
| 2026-05-06 23:29 | 35.23678 | -89.31893 | 36425 ft | 575 kts | 65° |
| 2026-05-06 23:29 | 35.25153 | -89.27416 | 35852 ft | 576 kts | 65° |
| 2026-05-06 23:30 | 35.26652 | -89.22855 | 35209 ft | 577 kts | 65° |
| 2026-05-06 23:30 | 35.28146 | -89.18301 | 34462 ft | 578 kts | 65° |
| 2026-05-06 23:30 | 35.29634 | -89.13761 | 33600 ft | 577 kts | 65° |
| 2026-05-06 23:30 | 35.31130 | -89.09193 | 32792 ft | 574 kts | 66° |
| 2026-05-06 23:31 | 35.31238 | -89.08862 | 32734 ft | 574 kts | 66° |
| 2026-05-06 23:32 | 35.32245 | -89.05785 | 32204 ft | 572 kts | 66° |
| 2026-05-06 23:32 | 35.33700 | -89.01328 | 31439 ft | 568 kts | 66° |
| 2026-05-06 23:32 | 35.35158 | -88.96851 | 30647 ft | 567 kts | 66° |
| 2026-05-06 23:33 | 35.36608 | -88.92390 | 29878 ft | 565 kts | 66° |
| 2026-05-06 23:33 | 35.38049 | -88.87951 | 29112 ft | 565 kts | 66° |
| 2026-05-06 23:33 | 35.39497 | -88.83483 | 28411 ft | 562 kts | 66° |
| 2026-05-06 23:33 | 35.40926 | -88.79063 | 27860 ft | 555 kts | 66° |
| 2026-05-06 23:34 | 35.42326 | -88.74725 | 27351 ft | 547 kts | 67° |
| 2026-05-06 23:34 | 35.43718 | -88.70401 | 26859 ft | 539 kts | 67° |
| 2026-05-06 23:34 | 35.45081 | -88.66165 | 26384 ft | 532 kts | 67° |
| 2026-05-06 23:34 | 35.46436 | -88.61961 | 25936 ft | 528 kts | 67° |
| 2026-05-06 23:35 | 35.47782 | -88.57781 | 25450 ft | 524 kts | 67° |
| 2026-05-06 23:35 | 35.49101 | -88.53680 | 24946 ft | 520 kts | 67° |
| 2026-05-06 23:35 | 35.50418 | -88.49574 | 24432 ft | 517 kts | 66° |
| 2026-05-06 23:35 | 35.51722 | -88.45505 | 23908 ft | 513 kts | 67° |
| 2026-05-06 23:36 | 35.53018 | -88.41447 | 23376 ft | 511 kts | 67° |
| 2026-05-06 23:36 | 35.54306 | -88.37412 | 22837 ft | 509 kts | 67° |
| 2026-05-06 23:36 | 35.55581 | -88.33411 | 22298 ft | 506 kts | 67° |
| 2026-05-06 23:36 | 35.56866 | -88.29379 | 21754 ft | 503 kts | 68° |
| 2026-05-06 23:37 | 35.58127 | -88.25414 | 21214 ft | 500 kts | 68° |
| 2026-05-06 23:37 | 35.59388 | -88.21442 | 20667 ft | 497 kts | 68° |
| 2026-05-06 23:37 | 35.60645 | -88.17471 | 20114 ft | 494 kts | 68° |
| 2026-05-06 23:37 | 35.61876 | -88.13584 | 19575 ft | 492 kts | 68° |
| 2026-05-06 23:38 | 35.63112 | -88.09679 | 19024 ft | 489 kts | 68° |
| 2026-05-06 23:38 | 35.64346 | -88.05799 | 18477 ft | 486 kts | 68° |
| 2026-05-06 23:38 | 35.65570 | -88.01929 | 17934 ft | 483 kts | 68° |
| 2026-05-06 23:38 | 35.66785 | -87.98097 | 17386 ft | 480 kts | 68° |
| 2026-05-06 23:39 | 35.67994 | -87.94281 | 16851 ft | 477 kts | 69° |
| 2026-05-06 23:39 | 35.69173 | -87.90536 | 16322 ft | 475 kts | 69° |
| 2026-05-06 23:39 | 35.70361 | -87.86742 | 15802 ft | 471 kts | 69° |
| 2026-05-06 23:39 | 35.71529 | -87.83021 | 15474 ft | 461 kts | 69° |
| 2026-05-06 23:40 | 35.72672 | -87.79385 | 15220 ft | 449 kts | 69° |
| 2026-05-06 23:40 | 35.73776 | -87.75849 | 15019 ft | 436 kts | 69° |
| 2026-05-06 23:40 | 35.74824 | -87.72488 | 14956 ft | 412 kts | 69° |
| 2026-05-06 23:40 | 35.75817 | -87.69298 | 14967 ft | 388 kts | 68° |
| 2026-05-06 23:41 | 35.76788 | -87.66209 | 14851 ft | 389 kts | 69° |
| 2026-05-06 23:41 | 35.77756 | -87.63103 | 14302 ft | 388 kts | 68° |
| 2026-05-06 23:41 | 35.78721 | -87.60008 | 13790 ft | 384 kts | 69° |
| 2026-05-06 23:41 | 35.79665 | -87.56973 | 13313 ft | 379 kts | 69° |
| 2026-05-06 23:42 | 35.80592 | -87.53977 | 12898 ft | 370 kts | 69° |
| 2026-05-06 23:42 | 35.81501 | -87.51051 | 12497 ft | 361 kts | 69° |
| 2026-05-06 23:42 | 35.82386 | -87.48205 | 12140 ft | 352 kts | 67° |
| 2026-05-06 23:42 | 35.83363 | -87.45480 | 11738 ft | 343 kts | 63° |
| 2026-05-06 23:43 | 35.84387 | -87.42862 | 11346 ft | 335 kts | 62° |
| 2026-05-06 23:43 | 35.85406 | -87.40304 | 10952 ft | 332 kts | 62° |
| 2026-05-06 23:43 | 35.86409 | -87.37772 | 10632 ft | 328 kts | 63° |
| 2026-05-06 23:43 | 35.87346 | -87.35217 | 10301 ft | 325 kts | 72° |
| 2026-05-06 23:44 | 35.87591 | -87.32535 | 10020 ft | 313 kts | 100° |
| 2026-05-06 23:44 | 35.87201 | -87.29913 | 9996 ft | 313 kts | 106° |
| 2026-05-06 23:44 | 35.86708 | -87.27280 | 9977 ft | 312 kts | 107° |
| 2026-05-06 23:44 | 35.86237 | -87.24730 | 9833 ft | 304 kts | 106° |
| 2026-05-06 23:45 | 35.85793 | -87.22205 | 9422 ft | 300 kts | 105° |
| 2026-05-06 23:45 | 35.85364 | -87.19698 | 9075 ft | 294 kts | 105° |
| 2026-05-06 23:45 | 35.84967 | -87.17298 | 8686 ft | 284 kts | 105° |
| 2026-05-06 23:45 | 35.84580 | -87.14945 | 8268 ft | 276 kts | 104° |
| 2026-05-06 23:46 | 35.84207 | -87.12674 | 7884 ft | 267 kts | 104° |
| 2026-05-06 23:46 | 35.83844 | -87.10461 | 7631 ft | 258 kts | 104° |
| 2026-05-06 23:46 | 35.83498 | -87.08330 | 7336 ft | 250 kts | 104° |
| 2026-05-06 23:46 | 35.83162 | -87.06290 | 7068 ft | 245 kts | 104° |
| 2026-05-06 23:47 | 35.82726 | -87.04270 | 7002 ft | 243 kts | 111° |
| 2026-05-06 23:47 | 35.82179 | -87.02291 | 7001 ft | 243 kts | 111° |
| 2026-05-06 23:47 | 35.81650 | -87.00315 | 6997 ft | 242 kts | 111° |
| 2026-05-06 23:47 | 35.81128 | -86.98364 | 6999 ft | 242 kts | 111° |
| 2026-05-06 23:48 | 35.80609 | -86.96391 | 6995 ft | 241 kts | 110° |
| 2026-05-06 23:48 | 35.80099 | -86.94412 | 6998 ft | 242 kts | 109° |
| 2026-05-06 23:48 | 35.79738 | -86.92374 | 6997 ft | 244 kts | 100° |
| 2026-05-06 23:48 | 35.79638 | -86.90309 | 6997 ft | 245 kts | 91° |
| 2026-05-06 23:49 | 35.79804 | -86.88211 | 7001 ft | 246 kts | 81° |
| 2026-05-06 23:49 | 35.80244 | -86.86179 | 6978 ft | 243 kts | 71° |
| 2026-05-06 23:49 | 35.80913 | -86.84315 | 6747 ft | 237 kts | 61° |
| 2026-05-06 23:49 | 35.81799 | -86.82615 | 6414 ft | 232 kts | 51° |
| 2026-05-06 23:50 | 35.82844 | -86.81157 | 6081 ft | 227 kts | 41° |
| 2026-05-06 23:50 | 35.85322 | -86.78925 | 5425 ft | 215 kts | 22° |
| 2026-05-06 23:50 | 35.86694 | -86.78229 | 5103 ft | 210 kts | 15° |
| 2026-05-06 23:51 | 35.88058 | -86.77675 | 4859 ft | 208 kts | 13° |
| 2026-05-06 23:51 | 35.89436 | -86.77144 | 4656 ft | 206 kts | 14° |
| 2026-05-06 23:51 | 35.90778 | -86.76620 | 4405 ft | 199 kts | 13° |
| 2026-05-06 23:51 | 35.92081 | -86.76109 | 4178 ft | 190 kts | 14° |
| 2026-05-06 23:52 | 35.93305 | -86.75622 | 3997 ft | 180 kts | 14° |
| 2026-05-06 23:52 | 35.94493 | -86.75145 | 3809 ft | 179 kts | 14° |
| 2026-05-06 23:52 | 35.95673 | -86.74668 | 3606 ft | 178 kts | 14° |
| 2026-05-06 23:52 | 35.96842 | -86.74197 | 3347 ft | 175 kts | 15° |
| 2026-05-06 23:53 | 35.97997 | -86.73734 | 3114 ft | 173 kts | 15° |
| 2026-05-06 23:53 | 35.99137 | -86.73277 | 2877 ft | 168 kts | 15° |
| 2026-05-06 23:53 | 36.00195 | -86.72855 | 2649 ft | 152 kts | 14° |
| 2026-05-06 23:53 | 36.01161 | -86.72470 | 2459 ft | 144 kts | 14° |
| 2026-05-06 23:54 | 36.02117 | -86.72087 | 2294 ft | 143 kts | 14° |
| 2026-05-06 23:54 | 36.03064 | -86.71707 | 2099 ft | 141 kts | 15° |
| 2026-05-06 23:54 | 36.03996 | -86.71333 | 1916 ft | 140 kts | 14° |
| 2026-05-06 23:54 | 36.04913 | -86.70966 | 1730 ft | 139 kts | 15° |
| 2026-05-06 23:55 | 36.05827 | -86.70600 | 1547 ft | 138 kts | 15° |
| 2026-05-06 23:55 | 36.06747 | -86.70235 | 1367 ft | 137 kts | 17° |
| 2026-05-06 23:55 | 36.07648 | -86.69850 | 1185 ft | 137 kts | 18° |
| 2026-05-06 23:55 | 36.08555 | -86.69470 | 1009 ft | 136 kts | 15° |
| 2026-05-06 23:56 | 36.09466 | -86.69136 | 840 ft | 136 kts | 16° |
| 2026-05-06 23:56 | 36.10374 | -86.68784 | 657 ft | 136 kts | 17° |
| 2026-05-06 23:56 | 36.11221 | -86.68450 | 607 ft | 104 kts | 19° |
| 2026-05-06 23:56 | 36.11640 | -86.68276 | 607 ft | 43 kts | 18° |
| 2026-05-06 23:57 | 36.11902 | -86.68169 | 607 ft | 42 kts | 23° |
| 2026-05-06 23:57 | 36.12030 | -86.68004 | 607 ft | 27 kts | 56° |
| 2026-05-06 23:57 | 36.12147 | -86.67807 | 607 ft | 25 kts | 16° |
| 2026-05-06 23:57 | 36.12283 | -86.67742 | 607 ft | 20 kts | 21° |
| 2026-05-06 23:58 | 36.12421 | -86.67681 | 607 ft | 21 kts | 23° |
| 2026-05-06 23:58 | 36.12548 | -86.67570 | 607 ft | 23 kts | 39° |
| 2026-05-06 23:58 | 36.12654 | -86.67475 | 607 ft | 6 kts | 28° |
| 2026-05-06 23:58 | 36.12705 | -86.67436 | 607 ft | 10 kts | 35° |
| 2026-05-06 23:59 | 36.12767 | -86.67372 | 607 ft | 13 kts | 41° |
| 2026-05-06 23:59 | 36.12816 | -86.67276 | 607 ft | 13 kts | 101° |
| 2026-05-06 23:59 | 36.12764 | -86.67162 | 607 ft | 16 kts | 129° |
| 2026-05-06 23:59 | 36.12727 | -86.67054 | 607 ft | 14 kts | 89° |
| 2026-05-07 00:00 | 36.12759 | -86.66976 | 607 ft | 0 kts | 46° |